createdAt,value
2019-06-26T00:01:46.309Z,52.53
2019-06-26T00:04:14.827Z,52.60
2019-06-26T00:06:43.704Z,52.60
2019-06-26T00:09:12.249Z,52.66
2019-06-26T00:11:40.868Z,52.80
2019-06-26T00:14:09.430Z,52.92
2019-06-26T00:16:37.984Z,53.02
2019-06-26T00:19:07.018Z,52.97
2019-06-26T00:21:35.592Z,53.00
2019-06-26T00:24:04.128Z,53.17
2019-06-26T00:26:32.653Z,53.37
2019-06-26T00:29:01.220Z,53.38
2019-06-26T00:31:29.718Z,53.37
2019-06-26T00:33:58.248Z,53.25
2019-06-26T00:36:26.843Z,53.29
2019-06-26T00:38:55.345Z,53.58
2019-06-26T00:41:23.863Z,53.64
2019-06-26T00:43:52.460Z,53.68
2019-06-26T00:46:21.069Z,53.82
2019-06-26T00:48:49.581Z,53.81
2019-06-26T00:51:18.106Z,53.81
2019-06-26T00:53:46.674Z,53.76
2019-06-26T00:56:15.254Z,54.06
2019-06-26T00:58:43.795Z,54.23
2019-06-26T01:01:12.597Z,54.13
2019-06-26T01:03:41.178Z,54.20
2019-06-26T01:06:16.170Z,54.18
2019-06-26T01:08:44.657Z,54.48
2019-06-26T01:11:13.170Z,54.54
2019-06-26T01:13:57.135Z,54.58
2019-06-26T01:16:11.883Z,54.65
2019-06-26T01:18:40.393Z,54.64
2019-06-26T01:21:08.939Z,54.65
2019-06-26T01:23:38.031Z,54.41
2019-06-26T01:26:06.775Z,54.31
2019-06-26T01:28:35.319Z,54.34
2019-06-26T01:31:03.867Z,54.46
2019-06-26T01:33:32.360Z,54.66
2019-06-26T01:36:00.894Z,54.90
2019-06-26T01:38:29.479Z,55.17
2019-06-26T01:40:58.097Z,55.25
2019-06-26T01:43:26.621Z,55.05
2019-06-26T01:45:55.142Z,54.85
2019-06-26T01:48:23.615Z,54.88
2019-06-26T01:50:52.200Z,54.95
2019-06-26T01:53:21.048Z,55.02
2019-06-26T01:55:50.354Z,55.02
2019-06-26T01:58:18.882Z,55.03
2019-06-26T02:00:47.442Z,55.11
2019-06-26T02:03:16.152Z,55.14
2019-06-26T02:05:44.663Z,55.24
2019-06-26T02:08:13.150Z,55.44
2019-06-26T02:10:41.705Z,55.43
2019-06-26T02:13:10.244Z,55.44
2019-06-26T02:15:38.795Z,55.50
2019-06-26T02:18:26.417Z,55.57
2019-06-26T02:20:54.941Z,55.53
2019-06-26T02:23:23.511Z,55.52
2019-06-26T02:25:52.045Z,55.54
2019-06-26T02:28:20.573Z,55.38
2019-06-26T02:30:49.128Z,55.39
2019-06-26T02:33:17.946Z,55.49
2019-06-26T02:35:46.593Z,55.44
2019-06-26T02:38:15.228Z,55.50
2019-06-26T02:40:44.027Z,55.77
2019-06-26T02:43:12.554Z,55.96
2019-06-26T02:45:41.095Z,56.00
2019-06-26T02:48:09.654Z,56.04
2019-06-26T02:50:38.172Z,56.15
2019-06-26T02:53:06.667Z,56.05
2019-06-26T02:55:35.207Z,56.10
2019-06-26T02:58:03.713Z,56.15
2019-06-26T03:00:32.267Z,56.23
2019-06-26T03:03:01.045Z,56.25
2019-06-26T03:05:29.844Z,56.18
2019-06-26T03:07:58.352Z,56.19
2019-06-26T03:10:26.938Z,56.22
2019-06-26T03:12:55.452Z,56.34
2019-06-26T03:15:23.971Z,56.54
2019-06-26T03:17:55.717Z,56.52
2019-06-26T03:20:28.727Z,56.53
2019-06-26T03:22:56.628Z,56.53
2019-06-26T03:25:25.146Z,56.43
2019-06-26T03:27:54.104Z,56.34
2019-06-26T03:30:24.336Z,56.44
2019-06-26T03:32:52.806Z,56.61
2019-06-26T03:35:21.638Z,56.67
2019-06-26T03:37:50.136Z,56.62
2019-06-26T03:40:18.687Z,56.72
2019-06-26T03:42:47.193Z,56.79
2019-06-26T03:45:25.562Z,56.91
2019-06-26T03:47:46.304Z,56.98
2019-06-26T03:50:14.844Z,57.02
2019-06-26T03:52:43.386Z,57.22
2019-06-26T03:55:11.931Z,57.26
2019-06-26T03:57:40.884Z,57.17
2019-06-26T04:00:09.410Z,57.18
2019-06-26T04:02:37.927Z,57.27
2019-06-26T04:05:06.462Z,57.45
2019-06-26T04:07:35.002Z,57.49
2019-06-26T04:10:03.733Z,57.39
2019-06-26T04:12:32.614Z,57.23
2019-06-26T04:15:01.244Z,57.14
2019-06-26T04:17:29.944Z,57.25
2019-06-26T04:19:58.675Z,57.22
2019-06-26T04:22:27.575Z,57.27
2019-06-26T04:24:56.083Z,57.35
2019-06-26T04:27:24.934Z,57.39
2019-06-26T04:29:53.437Z,57.36
2019-06-26T04:32:21.973Z,57.49
2019-06-26T04:34:50.564Z,57.50
2019-06-26T04:37:19.122Z,57.54
2019-06-26T04:39:47.942Z,57.44
2019-06-26T04:42:16.443Z,57.60
2019-06-26T04:44:45.038Z,57.57
2019-06-26T04:47:13.555Z,57.54
2019-06-26T04:49:42.137Z,57.55
2019-06-26T04:52:10.677Z,57.47
2019-06-26T04:54:39.211Z,57.50
2019-06-26T04:57:07.721Z,57.51
2019-06-26T04:59:36.289Z,57.52
2019-06-26T05:02:04.807Z,57.49
2019-06-26T05:04:33.306Z,57.38
2019-06-26T05:07:01.869Z,57.41
2019-06-26T05:09:30.446Z,57.35
2019-06-26T05:11:59.251Z,57.37
2019-06-26T05:14:27.744Z,57.32
2019-06-26T05:16:56.265Z,57.27
2019-06-26T05:19:24.794Z,57.21
2019-06-26T05:21:53.338Z,57.26
2019-06-26T05:24:21.856Z,57.12
2019-06-26T05:26:50.388Z,57.11
2019-06-26T05:29:18.916Z,57.09
2019-06-26T05:31:47.425Z,57.05
2019-06-26T05:34:15.924Z,57.01
2019-06-26T05:36:44.775Z,56.92
2019-06-26T05:39:13.561Z,56.85
2019-06-26T05:41:42.132Z,56.84
2019-06-26T05:44:10.915Z,56.82
2019-06-26T05:46:39.430Z,56.77
2019-06-26T05:49:08.183Z,56.70
2019-06-26T05:51:36.696Z,56.60
2019-06-26T05:54:05.384Z,56.50
2019-06-26T05:56:33.878Z,56.52
2019-06-26T05:59:02.585Z,56.51
2019-06-26T06:01:31.099Z,56.49
2019-06-26T06:03:59.924Z,56.52
2019-06-26T06:06:41.214Z,56.52
2019-06-26T06:09:00.321Z,56.50
2019-06-26T06:11:28.886Z,56.43
2019-06-26T06:13:57.421Z,56.44
2019-06-26T06:16:25.961Z,56.35
2019-06-26T06:18:54.489Z,56.40
2019-06-26T06:21:22.990Z,56.33
2019-06-26T06:23:51.511Z,56.31
2019-06-26T06:26:20.187Z,56.36
2019-06-26T06:28:48.661Z,56.43
2019-06-26T06:31:17.595Z,56.45
2019-06-26T06:33:46.463Z,56.41
2019-06-26T06:36:15.021Z,56.48
2019-06-26T06:38:43.607Z,56.54
2019-06-26T06:41:12.148Z,56.51
2019-06-26T06:43:40.684Z,56.46
2019-06-26T06:46:09.333Z,56.48
2019-06-26T06:48:38.207Z,56.48
2019-06-26T06:51:06.670Z,56.51
2019-06-26T06:53:35.293Z,56.43
2019-06-26T06:56:04.004Z,56.47
2019-06-26T06:58:32.579Z,56.51
2019-06-26T07:01:01.551Z,56.59
2019-06-26T07:03:30.125Z,56.51
2019-06-26T07:05:58.622Z,56.50
2019-06-26T07:08:27.125Z,56.50
2019-06-26T07:10:55.928Z,56.43
2019-06-26T07:13:24.746Z,56.44
2019-06-26T07:15:53.306Z,56.39
2019-06-26T07:18:21.838Z,56.29
2019-06-26T07:20:50.655Z,56.27
2019-06-26T07:23:19.189Z,56.24
2019-06-26T07:25:47.762Z,56.22
2019-06-26T07:28:16.378Z,56.24
2019-06-26T07:30:44.865Z,56.20
2019-06-26T07:33:13.408Z,56.17
2019-06-26T07:35:41.934Z,56.14
2019-06-26T07:38:10.531Z,56.16
2019-06-26T07:40:39.008Z,56.11
2019-06-26T07:43:07.572Z,56.05
2019-06-26T07:45:36.470Z,55.84
2019-06-26T07:48:04.971Z,55.74
2019-06-26T07:50:33.538Z,55.67
2019-06-26T07:53:02.198Z,55.49
2019-06-26T07:55:30.759Z,55.52
2019-06-26T07:57:59.778Z,55.30
2019-06-26T08:00:31.568Z,55.19
2019-06-26T08:02:58.556Z,55.31
2019-06-26T08:05:27.063Z,55.23
2019-06-26T08:07:55.682Z,55.11
2019-06-26T08:10:24.209Z,54.95
2019-06-26T08:12:52.842Z,54.88
2019-06-26T08:15:21.364Z,54.69
2019-06-26T08:18:00.055Z,54.51
2019-06-26T08:20:20.179Z,54.55
2019-06-26T08:22:48.706Z,54.48
2019-06-26T08:25:17.509Z,54.60
2019-06-26T08:27:45.981Z,54.59
2019-06-26T08:30:14.544Z,54.50
2019-06-26T08:32:43.071Z,54.49
2019-06-26T08:35:11.594Z,54.44
2019-06-26T08:37:40.183Z,54.35
2019-06-26T08:40:08.885Z,54.41
2019-06-26T08:42:37.384Z,54.36
2019-06-26T08:45:06.093Z,54.35
2019-06-26T08:47:34.710Z,54.25
2019-06-26T08:50:03.328Z,54.14
2019-06-26T08:52:32.152Z,54.01
2019-06-26T08:55:00.723Z,53.89
2019-06-26T08:57:29.236Z,53.89
2019-06-26T08:59:57.745Z,53.77
2019-06-26T09:02:26.325Z,53.85
2019-06-26T09:04:57.060Z,53.80
2019-06-26T09:07:25.603Z,53.65
2019-06-26T09:09:54.396Z,53.66
2019-06-26T09:12:22.959Z,53.62
2019-06-26T09:14:51.613Z,53.34
2019-06-26T09:17:20.141Z,53.10
2019-06-26T09:19:49.180Z,53.19
2019-06-26T09:22:17.751Z,53.18
2019-06-26T09:24:46.298Z,53.09
2019-06-26T09:27:17.271Z,52.98
2019-06-26T09:29:45.778Z,53.17
2019-06-26T09:32:14.320Z,53.22
2019-06-26T09:34:42.964Z,53.31
2019-06-26T09:37:11.520Z,53.39
2019-06-26T09:39:40.026Z,53.35
2019-06-26T09:42:08.692Z,53.50
2019-06-26T09:44:37.338Z,53.39
2019-06-26T09:47:05.875Z,53.34
2019-06-26T09:49:34.544Z,53.20
2019-06-26T09:52:03.134Z,53.16
2019-06-26T09:54:31.752Z,53.18
2019-06-26T09:57:00.251Z,53.19
2019-06-26T09:59:29.261Z,53.06
2019-06-26T10:01:57.789Z,53.32
2019-06-26T10:04:26.354Z,53.50
2019-06-26T10:06:55.048Z,53.70
2019-06-26T10:09:23.603Z,53.62
2019-06-26T10:11:52.514Z,53.45
2019-06-26T10:14:21.026Z,53.35
2019-06-26T10:16:49.560Z,53.13
2019-06-26T10:19:18.041Z,53.13
2019-06-26T10:21:46.636Z,53.16
2019-06-26T10:24:15.174Z,53.21
2019-06-26T10:26:43.711Z,53.23
2019-06-26T10:29:12.272Z,53.20
2019-06-26T10:31:40.851Z,52.96
2019-06-26T10:34:10.303Z,52.94
2019-06-26T10:36:39.295Z,53.01
2019-06-26T10:39:08.998Z,53.12
2019-06-26T10:41:37.547Z,52.72
2019-06-26T10:44:06.046Z,52.63
2019-06-26T10:46:34.571Z,52.35
2019-06-26T10:49:03.146Z,52.24
2019-06-26T10:51:31.701Z,52.02
2019-06-26T10:54:00.226Z,52.04
2019-06-26T10:56:28.973Z,51.77
2019-06-26T10:58:58.216Z,51.78
2019-06-26T11:01:26.990Z,51.51
2019-06-26T11:03:55.597Z,51.45
2019-06-26T11:06:24.120Z,51.37
2019-06-26T11:08:52.873Z,51.51
2019-06-26T11:11:21.407Z,51.63
2019-06-26T11:13:49.940Z,51.39
2019-06-26T11:16:18.506Z,51.32
2019-06-26T11:18:47.017Z,51.26
2019-06-26T11:21:15.587Z,51.10
2019-06-26T11:23:44.109Z,50.80
2019-06-26T11:26:12.667Z,50.47
2019-06-26T11:28:41.245Z,50.41
2019-06-26T11:31:09.942Z,50.47
2019-06-26T11:33:38.732Z,50.53
2019-06-26T11:36:07.238Z,50.60
2019-06-26T11:38:36.036Z,50.46
2019-06-26T11:41:04.521Z,50.34
2019-06-26T11:43:33.554Z,50.28
2019-06-26T11:46:02.088Z,50.36
2019-06-26T11:48:30.577Z,50.52
2019-06-26T11:50:59.120Z,50.76
2019-06-26T11:53:27.905Z,50.93
2019-06-26T11:55:56.489Z,50.71
2019-06-26T11:58:25.104Z,50.64
2019-06-26T12:00:53.849Z,50.66
2019-06-26T12:03:22.458Z,50.92
2019-06-26T12:05:50.990Z,51.00
2019-06-26T12:08:19.518Z,50.80
2019-06-26T12:10:48.017Z,50.69
2019-06-26T12:13:16.566Z,50.88
2019-06-26T12:15:45.099Z,50.69
2019-06-26T12:18:13.887Z,50.46
2019-06-26T12:20:42.441Z,50.71
2019-06-26T12:23:10.920Z,51.15
2019-06-26T12:25:39.599Z,51.52
2019-06-26T12:28:08.108Z,51.74
2019-06-26T12:30:36.874Z,51.58
2019-06-26T12:33:05.404Z,51.43
2019-06-26T12:35:34.062Z,51.39
2019-06-26T12:38:02.631Z,51.39
2019-06-26T12:40:31.582Z,51.85
2019-06-26T12:43:00.143Z,52.09
2019-06-26T12:45:28.652Z,52.60
2019-06-26T12:47:57.253Z,52.79
2019-06-26T12:50:35.474Z,52.89
2019-06-26T12:52:56.423Z,52.76
2019-06-26T12:55:25.513Z,52.75
2019-06-26T12:58:08.159Z,52.92
2019-06-26T13:00:24.313Z,53.30
2019-06-26T13:02:52.782Z,53.23
2019-06-26T13:05:21.308Z,53.14
2019-06-26T13:07:49.864Z,53.21
2019-06-26T13:10:18.346Z,53.04
2019-06-26T13:12:46.848Z,53.09
2019-06-26T13:15:15.393Z,53.35
2019-06-26T13:17:43.906Z,53.27
2019-06-26T13:20:12.727Z,53.20
2019-06-26T13:22:41.510Z,52.82
2019-06-26T13:25:10.078Z,52.79
2019-06-26T13:27:38.903Z,52.95
2019-06-26T13:30:07.463Z,53.31
2019-06-26T13:32:36.047Z,53.10
2019-06-26T13:35:04.845Z,52.77
2019-06-26T13:37:33.369Z,52.65
2019-06-26T13:40:01.921Z,53.00
2019-06-26T13:42:30.493Z,53.01
2019-06-26T13:44:59.007Z,53.12
2019-06-26T13:47:27.538Z,53.16
2019-06-26T13:49:56.114Z,53.33
2019-06-26T13:52:24.787Z,53.41
2019-06-26T13:54:57.004Z,53.14
2019-06-26T13:57:23.569Z,53.26
2019-06-26T13:59:52.438Z,53.31
2019-06-26T14:02:20.981Z,53.28
2019-06-26T14:04:49.852Z,53.60
2019-06-26T14:07:18.651Z,53.47
2019-06-26T14:09:47.301Z,52.96
2019-06-26T14:12:19.015Z,52.53
2019-06-26T14:14:57.186Z,52.14
2019-06-26T14:17:16.363Z,52.13
2019-06-26T14:19:44.885Z,52.27
2019-06-26T14:22:14.213Z,52.40
2019-06-26T14:24:42.804Z,52.23
2019-06-26T14:27:11.337Z,52.08
2019-06-26T14:29:39.869Z,51.61
2019-06-26T14:32:08.382Z,51.20
2019-06-26T14:34:36.963Z,50.42
2019-06-26T14:37:05.491Z,49.52
2019-06-26T14:39:34.283Z,49.34
2019-06-26T14:42:02.863Z,50.12
2019-06-26T14:44:31.339Z,49.71
2019-06-26T14:46:59.880Z,49.61
2019-06-26T14:49:28.784Z,48.45
2019-06-26T14:51:57.459Z,48.30
2019-06-26T14:54:26.084Z,48.41
2019-06-26T14:56:54.727Z,48.55
2019-06-26T14:59:23.290Z,49.21
2019-06-26T15:01:51.842Z,49.08
2019-06-26T15:04:20.392Z,49.10
2019-06-26T15:06:48.893Z,49.30
2019-06-26T15:09:17.377Z,49.71
2019-06-26T15:11:45.895Z,49.38
2019-06-26T15:14:14.542Z,49.34
2019-06-26T15:16:43.076Z,49.45
2019-06-26T15:19:11.561Z,49.51
2019-06-26T15:21:40.068Z,49.95
2019-06-26T15:24:08.624Z,50.16
2019-06-26T15:26:37.502Z,50.43
2019-06-26T15:29:06.050Z,49.90
2019-06-26T15:31:34.590Z,49.50
2019-06-26T15:34:03.125Z,49.56
2019-06-26T15:36:31.969Z,49.72
2019-06-26T15:39:00.607Z,50.02
2019-06-26T15:41:29.165Z,50.05
2019-06-26T15:43:58.479Z,50.52
2019-06-26T15:46:27.255Z,50.30
2019-06-26T15:48:55.780Z,50.72
2019-06-26T15:51:24.593Z,50.94
2019-06-26T15:53:53.039Z,50.87
2019-06-26T15:56:21.587Z,50.81
2019-06-26T15:58:50.122Z,50.35
2019-06-26T16:01:18.636Z,50.88
2019-06-26T16:03:47.478Z,50.64
2019-06-26T16:06:16.279Z,50.52
2019-06-26T16:08:44.842Z,50.99
2019-06-26T16:11:13.343Z,51.14
2019-06-26T16:13:41.928Z,50.43
2019-06-26T16:16:10.512Z,50.97
2019-06-26T16:18:43.728Z,51.01
2019-06-26T16:21:12.269Z,50.78
2019-06-26T16:23:40.806Z,51.55
2019-06-26T16:26:09.360Z,51.65
2019-06-26T16:28:38.486Z,52.12
2019-06-26T16:31:06.966Z,52.18
2019-06-26T16:33:35.475Z,51.96
2019-06-26T16:36:04.325Z,51.57
2019-06-26T16:38:32.840Z,51.71
2019-06-26T16:41:01.359Z,52.09
2019-06-26T16:43:29.846Z,52.16
2019-06-26T16:45:58.399Z,52.01
2019-06-26T16:48:27.209Z,51.94
2019-06-26T16:50:55.742Z,52.20
2019-06-26T16:53:24.588Z,52.33
2019-06-26T16:55:53.332Z,52.30
2019-06-26T16:58:21.867Z,52.20
2019-06-26T17:00:50.389Z,51.96
2019-06-26T17:03:18.867Z,51.55
2019-06-26T17:05:47.748Z,52.04
2019-06-26T17:08:16.340Z,52.29
2019-06-26T17:10:44.933Z,52.62
2019-06-26T17:13:13.406Z,52.40
2019-06-26T17:15:41.959Z,51.36
2019-06-26T17:18:10.532Z,51.70
2019-06-26T17:20:39.260Z,52.58
2019-06-26T17:23:08.167Z,52.78
2019-06-26T17:25:36.703Z,52.60
2019-06-26T17:28:05.737Z,52.56
2019-06-26T17:30:34.605Z,53.17
2019-06-26T17:33:03.200Z,53.10
2019-06-26T17:35:31.718Z,53.40
2019-06-26T17:38:00.336Z,53.32
2019-06-26T17:40:28.844Z,53.44
2019-06-26T17:43:11.337Z,53.14
2019-06-26T17:45:27.568Z,53.69
2019-06-26T17:47:56.091Z,53.31
2019-06-26T17:50:24.614Z,53.10
2019-06-26T17:52:53.121Z,53.28
2019-06-26T17:55:21.652Z,53.29
2019-06-26T17:57:50.285Z,53.21
2019-06-26T18:00:22.963Z,53.32
2019-06-26T18:02:51.562Z,53.86
2019-06-26T18:05:20.174Z,53.36
2019-06-26T18:07:48.769Z,53.42
2019-06-26T18:10:17.364Z,53.58
2019-06-26T18:12:45.850Z,54.55
2019-06-26T18:15:14.432Z,54.59
2019-06-26T18:17:43.008Z,55.04
2019-06-26T18:20:12.042Z,54.45
2019-06-26T18:22:40.861Z,54.49
2019-06-26T18:25:09.661Z,54.61
2019-06-26T18:27:38.275Z,54.98
2019-06-26T18:30:06.877Z,55.04
2019-06-26T18:32:35.704Z,55.03
2019-06-26T18:35:04.590Z,55.75
2019-06-26T18:37:33.382Z,55.77
2019-06-26T18:40:01.918Z,55.31
2019-06-26T18:42:30.394Z,55.24
2019-06-26T18:44:58.937Z,55.32
2019-06-26T18:47:27.739Z,55.66
2019-06-26T18:49:56.631Z,55.67
2019-06-26T18:52:25.216Z,55.46
2019-06-26T18:54:53.737Z,55.75
2019-06-26T18:57:22.482Z,55.47
2019-06-26T18:59:51.005Z,55.39
2019-06-26T19:02:19.592Z,55.66
2019-06-26T19:04:48.151Z,55.82
2019-06-26T19:07:16.699Z,56.18
2019-06-26T19:09:45.608Z,55.94
2019-06-26T19:12:14.129Z,55.55
2019-06-26T19:14:45.936Z,55.82
2019-06-26T19:17:12.899Z,56.15
2019-06-26T19:19:41.423Z,56.08
2019-06-26T19:22:09.896Z,56.25
2019-06-26T19:24:38.488Z,56.07
2019-06-26T19:27:07.805Z,56.08
2019-06-26T19:29:36.536Z,56.11
2019-06-26T19:32:05.134Z,56.30
2019-06-26T19:34:33.639Z,56.63
2019-06-26T19:37:02.188Z,56.67
2019-06-26T19:39:30.990Z,56.75
2019-06-26T19:41:59.554Z,57.10
2019-06-26T19:44:28.104Z,56.87
2019-06-26T19:46:56.589Z,56.95
2019-06-26T19:49:25.131Z,57.17
2019-06-26T19:51:53.850Z,56.96
2019-06-26T19:54:26.995Z,56.99
2019-06-26T19:56:52.697Z,57.18
2019-06-26T19:59:21.238Z,57.59
2019-06-26T20:01:51.481Z,57.53
2019-06-26T20:04:20.112Z,57.34
2019-06-26T20:06:48.628Z,57.21
2019-06-26T20:09:17.140Z,57.31
2019-06-26T20:11:45.674Z,57.58
2019-06-26T20:14:14.201Z,57.64
2019-06-26T20:16:42.690Z,57.40
2019-06-26T20:19:11.557Z,57.42
2019-06-26T20:21:40.017Z,57.81
2019-06-26T20:24:08.508Z,57.99
2019-06-26T20:26:36.943Z,58.30
2019-06-26T20:29:05.421Z,58.29
2019-06-26T20:31:33.905Z,58.12
2019-06-26T20:34:02.660Z,58.25
2019-06-26T20:36:31.162Z,58.44
2019-06-26T20:38:59.636Z,58.48
2019-06-26T20:41:28.137Z,58.38
2019-06-26T20:43:56.647Z,58.52
2019-06-26T20:46:25.099Z,58.44
2019-06-26T20:48:53.851Z,58.41
2019-06-26T20:51:22.459Z,58.63
2019-06-26T20:53:51.026Z,58.91
2019-06-26T20:56:19.814Z,58.77
2019-06-26T20:58:48.293Z,59.24
2019-06-26T21:01:16.739Z,59.07
2019-06-26T21:03:45.269Z,59.50
2019-06-26T21:06:13.709Z,59.54
2019-06-26T21:08:42.201Z,59.52
2019-06-26T21:11:10.828Z,59.61
2019-06-26T21:13:39.669Z,59.46
2019-06-26T21:16:08.128Z,59.19
2019-06-26T21:18:36.654Z,59.15
2019-06-26T21:21:05.217Z,59.12
2019-06-26T21:23:33.681Z,59.31
2019-06-26T21:26:02.211Z,59.76
2019-06-26T21:28:30.690Z,59.69
2019-06-26T21:30:59.233Z,60.19
2019-06-26T21:33:27.718Z,60.22
2019-06-26T21:35:56.153Z,60.10
2019-06-26T21:38:24.644Z,60.13
2019-06-26T21:40:53.146Z,59.59
2019-06-26T21:43:21.671Z,59.44
2019-06-26T21:45:50.161Z,59.40
2019-06-26T21:48:18.651Z,59.42
2019-06-26T21:50:47.161Z,59.44
2019-06-26T21:53:15.673Z,59.48
2019-06-26T21:55:44.168Z,59.48
2019-06-26T21:58:12.668Z,59.43
2019-06-26T22:00:41.394Z,59.50
2019-06-26T22:03:10.213Z,59.48
2019-06-26T22:05:39.008Z,59.57
2019-06-26T22:08:07.502Z,60.04
2019-06-26T22:10:36.370Z,59.88
2019-06-26T22:13:05.155Z,59.90
2019-06-26T22:15:33.709Z,59.68
2019-06-26T22:18:02.178Z,59.77
2019-06-26T22:20:30.666Z,59.61
2019-06-26T22:22:59.178Z,59.49
2019-06-26T22:25:27.911Z,59.88
2019-06-26T22:27:56.415Z,60.05
2019-06-26T22:30:25.338Z,60.22
2019-06-26T22:32:53.810Z,60.04
2019-06-26T22:35:22.330Z,59.91
2019-06-26T22:37:50.824Z,59.99
2019-06-26T22:40:19.371Z,59.99
2019-06-26T22:42:47.847Z,59.85
2019-06-26T22:45:16.760Z,59.94
2019-06-26T22:47:45.250Z,59.87
2019-06-26T22:50:13.751Z,59.81
2019-06-26T22:52:42.262Z,59.89
2019-06-26T22:55:10.775Z,59.80
2019-06-26T22:57:39.308Z,59.85
2019-06-26T23:00:08.076Z,59.89
2019-06-26T23:02:36.607Z,59.94
2019-06-26T23:05:05.882Z,59.85
2019-06-26T23:07:34.391Z,60.01
2019-06-26T23:10:02.869Z,60.19
2019-06-26T23:12:31.395Z,60.29
2019-06-26T23:14:59.895Z,60.26
2019-06-26T23:17:28.407Z,60.10
2019-06-26T23:19:56.983Z,60.22
2019-06-26T23:22:25.479Z,59.85
2019-06-26T23:24:54.090Z,60.00
2019-06-26T23:27:22.623Z,60.11
2019-06-26T23:29:51.091Z,59.99
2019-06-26T23:32:19.626Z,60.12
2019-06-26T23:34:48.150Z,59.94
2019-06-26T23:37:16.924Z,59.95
2019-06-26T23:39:45.746Z,60.09
2019-06-26T23:42:14.255Z,59.98
2019-06-26T23:44:42.792Z,60.01
2019-06-26T23:47:11.319Z,60.11
2019-06-26T23:49:39.900Z,60.25
2019-06-26T23:52:08.398Z,60.15
2019-06-26T23:54:36.923Z,59.98
2019-06-26T23:57:05.442Z,59.81
2019-06-26T23:59:33.926Z,59.85
